createdAt,value
2023-05-10T00:00:07.403Z,615.00
2023-05-10T00:01:07.417Z,614.00
2023-05-10T00:02:07.514Z,612.00
2023-05-10T00:03:07.543Z,613.00
2023-05-10T00:04:07.517Z,615.00
2023-05-10T00:05:07.511Z,616.00
2023-05-10T00:06:07.511Z,616.00
2023-05-10T00:07:07.533Z,615.00
2023-05-10T00:08:07.590Z,614.00
2023-05-10T00:09:07.617Z,613.00
2023-05-10T00:10:07.687Z,614.00
2023-05-10T00:11:07.688Z,615.00
2023-05-10T00:12:07.733Z,614.00
2023-05-10T00:13:07.709Z,613.00
2023-05-10T00:14:07.728Z,613.00
2023-05-10T00:15:07.772Z,615.00
2023-05-10T00:16:07.891Z,614.00
2023-05-10T00:17:07.817Z,613.00
2023-05-10T00:18:07.935Z,611.00
2023-05-10T00:19:07.911Z,612.00
2023-05-10T00:20:07.940Z,614.00
2023-05-10T00:21:07.949Z,615.00
2023-05-10T00:22:07.979Z,616.00
2023-05-10T00:23:07.981Z,617.00
2023-05-10T00:24:08.015Z,617.00
2023-05-10T00:25:08.081Z,619.00
2023-05-10T00:26:08.042Z,618.00
2023-05-10T00:27:08.088Z,618.00
2023-05-10T00:28:08.119Z,617.00
2023-05-10T00:29:08.171Z,616.00
2023-05-10T00:30:08.227Z,612.00
2023-05-10T00:31:08.209Z,614.00
2023-05-10T00:32:08.291Z,613.00
2023-05-10T00:33:08.237Z,614.00
2023-05-10T00:34:08.290Z,614.00
2023-05-10T00:35:08.271Z,615.00
2023-05-10T00:36:08.286Z,617.00
2023-05-10T00:37:08.319Z,614.00
2023-05-10T00:38:08.436Z,613.00
2023-05-10T00:39:08.489Z,613.00
2023-05-10T00:40:08.400Z,615.00
2023-05-10T00:41:08.421Z,614.00
2023-05-10T00:42:08.443Z,614.00
2023-05-10T00:43:08.495Z,612.00
2023-05-10T00:44:08.576Z,613.00
2023-05-10T00:45:08.555Z,610.00
2023-05-10T00:46:08.599Z,609.00
2023-05-10T00:47:08.585Z,609.00
2023-05-10T00:48:08.645Z,610.00
2023-05-10T00:49:08.652Z,611.00
2023-05-10T00:50:08.678Z,608.00
2023-05-10T00:51:08.754Z,605.00
2023-05-10T00:52:08.750Z,604.00
2023-05-10T00:53:08.747Z,603.00
2023-05-10T00:54:08.854Z,601.00
2023-05-10T00:55:08.832Z,603.00
2023-05-10T00:56:08.858Z,606.00
2023-05-10T00:57:08.887Z,608.00
2023-05-10T00:58:08.978Z,610.00
2023-05-10T00:59:08.971Z,610.00
2023-05-10T01:00:08.985Z,610.00
2023-05-10T01:01:09.009Z,609.00
2023-05-10T01:02:09.072Z,609.00
2023-05-10T01:03:09.167Z,611.00
2023-05-10T01:04:09.153Z,612.00
2023-05-10T01:05:09.227Z,614.00
2023-05-10T01:06:09.148Z,613.00
2023-05-10T01:07:09.199Z,614.00
2023-05-10T01:08:09.256Z,616.00
2023-05-10T01:09:09.280Z,616.00
2023-05-10T01:10:09.313Z,614.00
2023-05-10T01:11:09.343Z,610.00
2023-05-10T01:12:09.317Z,608.00
2023-05-10T01:13:09.363Z,609.00
2023-05-10T01:14:09.397Z,609.00
2023-05-10T01:15:09.421Z,609.00
2023-05-10T01:16:09.530Z,612.00
2023-05-10T01:17:09.447Z,612.00
2023-05-10T01:18:09.463Z,611.00
2023-05-10T01:28:24.648Z,607.00
2023-05-10T01:29:24.491Z,606.00
2023-05-10T01:30:24.609Z,608.00
2023-05-10T01:31:24.549Z,607.00
2023-05-10T01:32:24.639Z,605.00
2023-05-10T01:33:24.427Z,606.00
2023-05-10T01:34:24.391Z,606.00
2023-05-10T01:35:24.379Z,605.00
2023-05-10T01:36:24.405Z,603.00
2023-05-10T01:37:24.375Z,604.00
2023-05-10T01:38:24.391Z,605.00
2023-05-10T01:39:24.378Z,601.00
2023-05-10T01:40:24.359Z,602.00
2023-05-10T01:41:24.343Z,602.00
2023-05-10T01:42:24.407Z,602.00
2023-05-10T01:43:24.335Z,605.00
2023-05-10T01:44:24.337Z,605.00
2023-05-10T01:45:24.310Z,604.00
2023-05-10T01:46:24.339Z,605.00
2023-05-10T01:47:24.359Z,607.00
2023-05-10T01:48:24.319Z,607.00
2023-05-10T01:49:24.284Z,605.00
2023-05-10T01:50:24.275Z,603.00
2023-05-10T01:51:24.260Z,600.00
2023-05-10T01:52:24.293Z,599.00
2023-05-10T01:53:24.269Z,599.00
2023-05-10T01:54:24.292Z,597.00
2023-05-10T01:55:24.233Z,599.00
2023-05-10T01:56:24.257Z,598.00
2023-05-10T01:57:24.227Z,600.00
2023-05-10T01:58:24.259Z,599.00
2023-05-10T01:59:24.289Z,602.00
2023-05-10T02:00:24.220Z,605.00
2023-05-10T02:01:24.295Z,604.00
2023-05-10T02:02:24.206Z,604.00
2023-05-10T02:03:24.221Z,604.00
2023-05-10T02:04:24.233Z,605.00
2023-05-10T02:05:24.228Z,603.00
2023-05-10T02:06:24.198Z,604.00
2023-05-10T02:07:24.184Z,604.00
2023-05-10T02:08:24.178Z,603.00
2023-05-10T02:09:24.145Z,606.00
2023-05-10T02:10:24.201Z,605.00
2023-05-10T02:11:24.143Z,605.00
2023-05-10T02:12:24.119Z,604.00
2023-05-10T02:13:24.292Z,603.00
2023-05-10T02:14:24.139Z,601.00
2023-05-10T02:15:24.121Z,598.00
2023-05-10T02:16:24.151Z,595.00
2023-05-10T02:17:24.137Z,596.00
2023-05-10T02:18:24.120Z,598.00
2023-05-10T02:19:24.112Z,595.00
2023-05-10T02:20:24.066Z,596.00
2023-05-10T02:21:24.134Z,595.00
2023-05-10T02:22:24.050Z,596.00
2023-05-10T02:23:24.065Z,597.00
2023-05-10T02:24:24.051Z,596.00
2023-05-10T02:25:24.060Z,599.00
2023-05-10T02:26:24.057Z,598.00
2023-05-10T02:27:24.021Z,595.00
2023-05-10T02:28:24.001Z,594.00
2023-05-10T02:29:24.002Z,594.00
2023-05-10T02:30:24.038Z,594.00
2023-05-10T02:31:24.022Z,593.00
2023-05-10T02:32:24.134Z,593.00
2023-05-10T02:33:23.975Z,594.00
2023-05-10T02:34:24.008Z,595.00
2023-05-10T02:35:23.987Z,597.00
2023-05-10T02:36:24.015Z,599.00
2023-05-10T02:37:24.038Z,600.00
2023-05-10T02:38:24.049Z,599.00
2023-05-10T02:39:24.087Z,598.00
2023-05-10T02:40:24.403Z,596.00
2023-05-10T02:41:24.117Z,598.00
2023-05-10T02:42:24.146Z,597.00
2023-05-10T02:43:24.203Z,597.00
2023-05-10T02:44:24.220Z,594.00
2023-05-10T02:45:24.245Z,596.00
2023-05-10T02:46:24.315Z,598.00
2023-05-10T02:47:24.304Z,598.00
2023-05-10T02:48:24.302Z,597.00
2023-05-10T02:49:24.349Z,593.00
2023-05-10T02:50:24.396Z,594.00
2023-05-10T02:51:24.374Z,594.00
2023-05-10T02:52:24.415Z,595.00
2023-05-10T02:53:24.450Z,598.00
2023-05-10T02:54:24.475Z,595.00
2023-05-10T02:55:24.478Z,594.00
2023-05-10T02:56:24.492Z,591.00
2023-05-10T02:57:24.530Z,591.00
2023-05-10T02:58:24.569Z,589.00
2023-05-10T02:59:24.587Z,589.00
2023-05-10T03:00:24.593Z,589.00
2023-05-10T03:01:24.701Z,590.00
2023-05-10T03:02:24.684Z,592.00
2023-05-10T03:03:24.676Z,593.00
2023-05-10T03:04:24.742Z,595.00
2023-05-10T03:05:24.746Z,597.00
2023-05-10T03:06:24.746Z,597.00
2023-05-10T03:07:24.817Z,597.00
2023-05-10T03:08:24.815Z,595.00
2023-05-10T03:09:24.844Z,591.00
2023-05-10T03:10:24.871Z,593.00
2023-05-10T03:11:24.887Z,592.00
2023-05-10T03:12:24.926Z,592.00
2023-05-10T03:13:25.090Z,591.00
2023-05-10T03:14:24.984Z,592.00
2023-05-10T03:15:24.989Z,589.00
2023-05-10T03:16:25.055Z,588.00
2023-05-10T03:17:25.135Z,589.00
2023-05-10T03:18:25.076Z,588.00
2023-05-10T03:19:25.192Z,588.00
2023-05-10T03:20:25.171Z,589.00
2023-05-10T03:21:25.180Z,589.00
2023-05-10T03:22:25.199Z,591.00
2023-05-10T03:23:25.238Z,590.00
2023-05-10T03:24:25.687Z,591.00
2023-05-10T03:25:25.296Z,592.00
2023-05-10T03:26:25.302Z,592.00
2023-05-10T03:27:25.348Z,588.00
2023-05-10T03:28:25.363Z,589.00
2023-05-10T03:29:25.380Z,587.00
2023-05-10T03:30:25.399Z,586.00
2023-05-10T03:31:25.474Z,586.00
2023-05-10T03:32:25.506Z,587.00
2023-05-10T03:33:25.497Z,586.00
2023-05-10T03:34:25.532Z,585.00
2023-05-10T03:35:25.549Z,586.00
2023-05-10T03:36:25.586Z,587.00
2023-05-10T03:37:25.580Z,584.00
2023-05-10T03:38:25.639Z,585.00
2023-05-10T03:39:25.673Z,583.00
2023-05-10T03:40:25.685Z,584.00
2023-05-10T03:41:25.708Z,585.00
2023-05-10T03:42:25.727Z,587.00
2023-05-10T03:43:25.749Z,587.00
2023-05-10T03:44:25.792Z,587.00
2023-05-10T03:45:25.819Z,586.00
2023-05-10T03:46:25.917Z,587.00
2023-05-10T03:47:25.888Z,586.00
2023-05-10T03:48:25.890Z,587.00
2023-05-10T03:49:25.955Z,586.00
2023-05-10T03:50:25.988Z,585.00
2023-05-10T03:51:25.986Z,583.00
2023-05-10T03:52:26.009Z,580.00
2023-05-10T03:53:26.028Z,581.00
2023-05-10T03:54:26.085Z,581.00
2023-05-10T03:55:26.122Z,584.00
2023-05-10T03:56:26.241Z,581.00
2023-05-10T03:57:26.171Z,585.00
2023-05-10T03:58:26.196Z,584.00
2023-05-10T03:59:26.232Z,585.00
2023-05-10T04:00:26.243Z,587.00
2023-05-10T04:01:26.252Z,587.00
2023-05-10T04:02:26.571Z,586.00
2023-05-10T04:03:26.414Z,588.00
2023-05-10T04:04:26.356Z,589.00
2023-05-10T04:05:26.395Z,588.00
2023-05-10T04:06:26.531Z,588.00
2023-05-10T04:07:26.447Z,590.00
2023-05-10T04:08:26.485Z,588.00
2023-05-10T04:09:26.476Z,588.00
2023-05-10T04:10:26.524Z,588.00
2023-05-10T04:11:26.530Z,586.00
2023-05-10T04:12:26.551Z,587.00
2023-05-10T04:13:26.702Z,588.00
2023-05-10T04:14:26.615Z,586.00
2023-05-10T04:15:26.639Z,586.00
2023-05-10T04:16:26.695Z,585.00
2023-05-10T04:17:26.724Z,586.00
2023-05-10T04:18:26.725Z,588.00
2023-05-10T04:19:26.777Z,587.00
2023-05-10T04:20:26.795Z,588.00
2023-05-10T04:21:26.819Z,589.00
2023-05-10T04:22:26.891Z,587.00
2023-05-10T04:23:26.901Z,588.00
2023-05-10T04:24:26.933Z,588.00
2023-05-10T04:25:26.947Z,589.00
2023-05-10T04:26:26.964Z,590.00
2023-05-10T04:27:27.036Z,590.00
2023-05-10T04:28:27.024Z,588.00
2023-05-10T04:29:27.076Z,588.00
2023-05-10T04:30:27.079Z,587.00
2023-05-10T04:31:27.168Z,586.00
2023-05-10T04:32:27.201Z,584.00
2023-05-10T04:33:27.165Z,582.00
2023-05-10T04:34:27.215Z,581.00
2023-05-10T04:35:27.274Z,577.00
2023-05-10T04:36:27.249Z,578.00
2023-05-10T04:37:27.294Z,576.00
2023-05-10T04:38:27.337Z,575.00
2023-05-10T04:39:27.352Z,577.00
2023-05-10T04:40:27.373Z,576.00
2023-05-10T04:41:27.410Z,578.00
2023-05-10T04:42:27.474Z,580.00
2023-05-10T04:43:27.475Z,578.00
2023-05-10T04:44:27.540Z,579.00
2023-05-10T04:45:27.573Z,580.00
2023-05-10T04:46:27.650Z,578.00
2023-05-10T04:47:27.644Z,579.00
2023-05-10T04:48:27.657Z,578.00
2023-05-10T04:49:29.230Z,577.00
2023-05-10T04:50:27.718Z,577.00
2023-05-10T04:51:27.827Z,575.00
2023-05-10T04:52:27.797Z,574.00
2023-05-10T04:53:27.820Z,576.00
2023-05-10T04:54:27.898Z,579.00
2023-05-10T04:55:27.900Z,578.00
2023-05-10T04:56:27.915Z,575.00
2023-05-10T04:57:27.975Z,574.00
2023-05-10T04:58:28.010Z,574.00
2023-05-10T04:59:28.702Z,575.00
2023-05-10T05:00:28.060Z,578.00
2023-05-10T05:01:28.198Z,580.00
2023-05-10T05:02:28.237Z,582.00
2023-05-10T05:03:28.358Z,581.00
2023-05-10T05:04:28.226Z,579.00
2023-05-10T05:05:28.275Z,580.00
2023-05-10T05:06:28.415Z,580.00
2023-05-10T05:07:28.367Z,576.00
2023-05-10T05:08:28.395Z,575.00
2023-05-10T05:09:28.461Z,574.00
2023-05-10T05:10:28.468Z,573.00
2023-05-10T05:11:28.493Z,574.00
2023-05-10T05:12:28.561Z,574.00
2023-05-10T05:13:28.643Z,576.00
2023-05-10T05:14:28.622Z,576.00
2023-05-10T05:15:28.673Z,577.00
2023-05-10T05:16:28.736Z,577.00
2023-05-10T05:17:28.805Z,578.00
2023-05-10T05:18:28.776Z,577.00
2023-05-10T05:19:28.797Z,577.00
2023-05-10T05:20:28.848Z,574.00
2023-05-10T05:21:28.871Z,573.00
2023-05-10T05:22:28.977Z,572.00
2023-05-10T05:23:28.941Z,571.00
2023-05-10T05:24:28.988Z,571.00
2023-05-10T05:25:29.189Z,571.00
2023-05-10T05:26:29.189Z,571.00
2023-05-10T05:27:29.155Z,571.00
2023-05-10T05:28:29.162Z,573.00
2023-05-10T05:29:29.205Z,574.00
2023-05-10T05:30:29.293Z,574.00
2023-05-10T05:31:29.329Z,570.00
2023-05-10T05:32:29.420Z,570.00
2023-05-10T05:33:29.365Z,571.00
2023-05-10T05:34:29.442Z,566.00
2023-05-10T05:35:29.499Z,563.00
2023-05-10T05:36:29.521Z,561.00
2023-05-10T05:37:29.555Z,595.00
2023-05-10T05:38:29.595Z,626.00
2023-05-10T05:39:30.269Z,602.00
2023-05-10T05:40:29.805Z,597.00
2023-05-10T05:41:29.673Z,598.00
2023-05-10T05:42:29.862Z,563.00
2023-05-10T05:43:29.800Z,557.00
2023-05-10T05:44:29.977Z,638.00
2023-05-10T05:45:29.991Z,655.00
2023-05-10T05:46:29.948Z,657.00
2023-05-10T05:47:30.085Z,659.00
2023-05-10T05:48:30.092Z,661.00
2023-05-10T05:49:30.123Z,671.00
2023-05-10T05:50:30.196Z,676.00
2023-05-10T05:51:30.214Z,674.00
2023-05-10T05:52:30.352Z,676.00
2023-05-10T05:53:30.318Z,683.00
2023-05-10T05:54:30.403Z,680.00
2023-05-10T05:55:30.433Z,675.00
2023-05-10T05:56:30.493Z,668.00
2023-05-10T05:57:30.537Z,655.00
2023-05-10T05:58:30.673Z,654.00
2023-05-10T05:59:30.686Z,656.00
2023-05-10T06:00:30.733Z,649.00
2023-05-10T06:01:30.826Z,632.00
2023-05-10T06:02:30.930Z,636.00
2023-05-10T06:03:31.055Z,634.00
2023-05-10T06:04:31.254Z,631.00
2023-05-10T06:05:31.099Z,636.00
2023-05-10T06:06:31.176Z,638.00
2023-05-10T06:07:31.230Z,639.00
2023-05-10T06:08:31.232Z,644.00
2023-05-10T06:09:31.301Z,649.00
2023-05-10T06:10:31.376Z,647.00
2023-05-10T06:11:31.465Z,648.00
2023-05-10T06:12:31.510Z,650.00
2023-05-10T06:13:31.663Z,657.00
2023-05-10T06:14:31.671Z,658.00
2023-05-10T06:15:31.686Z,656.00
2023-05-10T06:16:31.761Z,649.00
2023-05-10T06:17:31.974Z,652.00
2023-05-10T06:18:31.835Z,660.00
2023-05-10T06:19:31.907Z,656.00
2023-05-10T06:20:32.104Z,674.00
2023-05-10T06:21:32.727Z,721.00
2023-05-10T06:22:32.059Z,720.00
2023-05-10T06:23:32.199Z,716.00
2023-05-10T06:24:32.131Z,716.00
2023-05-10T06:25:32.150Z,715.00
2023-05-10T06:26:32.181Z,736.00
2023-05-10T06:27:32.194Z,765.00
2023-05-10T06:28:32.282Z,812.00
2023-05-10T06:29:32.302Z,812.00
2023-05-10T06:30:32.306Z,814.00
2023-05-10T06:31:32.332Z,817.00
2023-05-10T06:32:32.375Z,819.00
2023-05-10T06:33:32.289Z,842.00
2023-05-10T06:34:32.277Z,854.00
2023-05-10T06:35:32.294Z,859.00
2023-05-10T06:36:32.289Z,873.00
2023-05-10T06:37:32.334Z,912.00
2023-05-10T06:38:32.373Z,904.00
2023-05-10T06:39:32.754Z,882.00
2023-05-10T06:40:32.369Z,963.00
2023-05-10T06:41:32.389Z,959.00
2023-05-10T06:42:32.574Z,942.00
2023-05-10T06:43:32.506Z,881.00
2023-05-10T06:44:32.777Z,933.00
2023-05-10T06:45:32.621Z,960.00
2023-05-10T06:46:32.751Z,971.00
2023-05-10T06:47:32.781Z,972.00
2023-05-10T06:48:32.797Z,968.00
2023-05-10T06:49:33.272Z,969.00
2023-05-10T06:50:32.935Z,967.00
2023-05-10T06:51:33.001Z,956.00
2023-05-10T06:52:33.109Z,947.00
2023-05-10T06:53:33.067Z,938.00
2023-05-10T06:54:33.469Z,930.00
2023-05-10T06:55:33.183Z,925.00
2023-05-10T06:56:33.231Z,924.00
2023-05-10T06:57:33.277Z,925.00
2023-05-10T06:58:33.326Z,920.00
2023-05-10T06:59:34.971Z,908.00
2023-05-10T07:00:33.485Z,906.00
2023-05-10T07:01:33.546Z,948.00
2023-05-10T07:02:33.680Z,950.00
2023-05-10T07:03:33.605Z,993.00
2023-05-10T07:04:33.697Z,987.00
2023-05-10T07:05:33.785Z,978.00
2023-05-10T07:06:34.113Z,923.00
2023-05-10T07:07:33.813Z,904.00
2023-05-10T07:08:33.875Z,887.00
2023-05-10T07:09:33.962Z,886.00
2023-05-10T07:10:33.992Z,927.00
2023-05-10T07:11:34.048Z,951.00
2023-05-10T07:12:34.175Z,963.00
2023-05-10T07:13:34.214Z,974.00
2023-05-10T07:14:34.246Z,981.00
2023-05-10T07:15:34.259Z,987.00
2023-05-10T07:16:34.433Z,999.00
2023-05-10T07:17:34.469Z,1013.00
2023-05-10T07:18:34.405Z,1018.00
2023-05-10T07:19:34.435Z,1025.00
2023-05-10T07:20:34.479Z,1040.00
2023-05-10T07:21:34.581Z,1014.00
2023-05-10T07:22:34.602Z,1037.00
2023-05-10T07:23:34.595Z,1039.00
2023-05-10T07:24:36.299Z,1039.00
2023-05-10T07:25:34.760Z,1043.00
2023-05-10T07:26:34.720Z,1056.00
2023-05-10T07:27:34.734Z,1068.00
2023-05-10T07:28:34.817Z,1064.00
2023-05-10T07:29:34.784Z,1058.00
2023-05-10T07:30:34.813Z,1066.00
2023-05-10T07:31:34.876Z,1074.00
2023-05-10T07:32:35.339Z,1023.00
2023-05-10T07:33:34.913Z,974.00
2023-05-10T07:34:35.286Z,970.00
2023-05-10T07:35:34.938Z,969.00
2023-05-10T07:36:34.953Z,962.00
2023-05-10T07:37:34.951Z,1004.00
2023-05-10T07:38:34.973Z,941.00
2023-05-10T07:39:35.044Z,915.00
2023-05-10T07:40:35.765Z,907.00
2023-05-10T07:41:35.826Z,903.00
2023-05-10T07:42:35.107Z,909.00
2023-05-10T07:43:35.169Z,899.00
2023-05-10T07:44:35.177Z,901.00
2023-05-10T07:45:35.230Z,910.00
2023-05-10T07:46:35.251Z,897.00
2023-05-10T07:47:35.335Z,878.00
2023-05-10T07:48:35.478Z,863.00
2023-05-10T07:49:35.387Z,849.00
2023-05-10T07:50:35.428Z,800.00
2023-05-10T07:51:35.468Z,799.00
2023-05-10T07:52:35.514Z,799.00
2023-05-10T07:53:35.584Z,806.00
2023-05-10T07:54:35.776Z,815.00
2023-05-10T07:55:35.638Z,848.00
2023-05-10T07:56:35.686Z,865.00
2023-05-10T07:57:35.717Z,876.00
2023-05-10T07:58:35.802Z,886.00
2023-05-10T07:59:35.854Z,890.00
2023-05-10T08:00:35.824Z,899.00
2023-05-10T08:01:35.819Z,896.00
2023-05-10T08:02:35.915Z,913.00
2023-05-10T08:03:35.914Z,911.00
2023-05-10T08:04:36.073Z,911.00
2023-05-10T08:05:35.932Z,917.00
2023-05-10T08:06:35.896Z,936.00
2023-05-10T08:07:35.964Z,944.00
2023-05-10T08:08:35.931Z,964.00
2023-05-10T08:09:35.978Z,1001.00
2023-05-10T08:10:35.994Z,1006.00
2023-05-10T08:11:35.998Z,1013.00
2023-05-10T08:12:36.001Z,1015.00
2023-05-10T08:13:36.003Z,1019.00
2023-05-10T08:14:36.016Z,1023.00
2023-05-10T08:15:36.136Z,1028.00
2023-05-10T08:16:36.029Z,1035.00
2023-05-10T08:17:36.065Z,1043.00
2023-05-10T08:18:36.109Z,1048.00
2023-05-10T08:19:36.079Z,1056.00
2023-05-10T08:20:36.050Z,1066.00
2023-05-10T08:21:36.054Z,1075.00
2023-05-10T08:22:36.071Z,1090.00
2023-05-10T08:23:36.055Z,1125.00
2023-05-10T08:24:36.052Z,1135.00
2023-05-10T08:25:36.092Z,1170.00
2023-05-10T08:26:36.078Z,1179.00
2023-05-10T08:27:36.068Z,1169.00
2023-05-10T08:28:36.069Z,1180.00
2023-05-10T08:29:48.832Z,1192.00
2023-05-10T08:30:37.072Z,1197.00
2023-05-10T08:31:36.103Z,1203.00
2023-05-10T08:32:36.069Z,1212.00
2023-05-10T08:33:36.047Z,1213.00
2023-05-10T08:34:36.028Z,1219.00
2023-05-10T08:35:36.055Z,1292.00
2023-05-10T08:36:36.044Z,1274.00
2023-05-10T08:37:36.027Z,1136.00
2023-05-10T08:38:36.012Z,1128.00
2023-05-10T08:39:35.983Z,1199.00
2023-05-10T08:40:35.996Z,1156.00
2023-05-10T08:41:35.986Z,1182.00
2023-05-10T08:42:35.973Z,1193.00
2023-05-10T08:43:36.005Z,1189.00
2023-05-10T08:44:35.965Z,1182.00
2023-05-10T08:45:36.337Z,1184.00
2023-05-10T08:46:36.051Z,1194.00
2023-05-10T08:47:36.115Z,1206.00
2023-05-10T08:48:36.152Z,1224.00
2023-05-10T08:49:36.157Z,1160.00
2023-05-10T08:50:36.342Z,1110.00
2023-05-10T08:51:36.141Z,1094.00
2023-05-10T08:52:36.152Z,986.00
2023-05-10T08:53:36.144Z,969.00
2023-05-10T08:54:36.148Z,882.00
2023-05-10T08:55:36.186Z,861.00
2023-05-10T08:56:36.178Z,855.00
2023-05-10T08:57:36.201Z,849.00
2023-05-10T08:58:36.250Z,803.00
2023-05-10T08:59:36.284Z,791.00
2023-05-10T09:00:36.319Z,782.00
2023-05-10T09:01:36.346Z,780.00
2023-05-10T09:02:36.433Z,801.00
2023-05-10T09:03:36.499Z,791.00
2023-05-10T09:04:36.549Z,768.00
2023-05-10T09:05:36.569Z,764.00
2023-05-10T09:06:36.580Z,757.00
2023-05-10T09:07:36.655Z,744.00
2023-05-10T09:08:36.718Z,683.00
2023-05-10T09:09:36.821Z,691.00
2023-05-10T09:10:36.802Z,694.00
2023-05-10T09:11:36.878Z,688.00
2023-05-10T09:12:36.954Z,674.00
2023-05-10T09:13:37.091Z,669.00
2023-05-10T09:14:37.095Z,675.00
2023-05-10T09:15:37.156Z,682.00
2023-05-10T09:16:37.187Z,681.00
2023-05-10T09:17:37.256Z,682.00
2023-05-10T09:18:37.325Z,674.00
2023-05-10T09:19:37.347Z,673.00
2023-05-10T09:20:37.514Z,673.00
2023-05-10T09:21:37.467Z,736.00
2023-05-10T09:22:37.526Z,775.00
2023-05-10T09:23:37.601Z,785.00
2023-05-10T09:24:37.831Z,790.00
2023-05-10T09:25:37.731Z,796.00
2023-05-10T09:26:37.767Z,805.00
2023-05-10T09:27:37.817Z,807.00
2023-05-10T09:28:37.860Z,810.00
2023-05-10T09:29:37.900Z,815.00
2023-05-10T09:30:37.954Z,864.00
2023-05-10T09:31:37.965Z,890.00
2023-05-10T09:32:38.079Z,897.00
2023-05-10T09:33:38.014Z,1025.00
2023-05-10T09:34:38.078Z,1037.00
2023-05-10T09:35:38.086Z,1033.00
2023-05-10T09:36:38.134Z,1124.00
2023-05-10T09:37:38.121Z,1179.00
2023-05-10T09:38:38.123Z,1233.00
2023-05-10T09:39:38.120Z,1236.00
2023-05-10T09:40:38.168Z,1272.00
2023-05-10T09:41:38.156Z,1259.00
2023-05-10T09:42:38.163Z,1258.00
2023-05-10T09:43:38.228Z,1253.00
2023-05-10T09:44:38.303Z,1242.00
2023-05-10T09:45:39.145Z,1211.00
2023-05-10T09:46:38.268Z,1191.00
2023-05-10T09:47:38.240Z,1187.00
2023-05-10T09:48:38.273Z,1130.00
2023-05-10T09:49:38.237Z,1116.00
2023-05-10T09:50:38.334Z,1067.00
2023-05-10T09:51:38.229Z,1046.00
2023-05-10T09:52:38.219Z,1004.00
2023-05-10T09:53:38.231Z,976.00
2023-05-10T09:54:38.262Z,964.00
2023-05-10T09:55:38.255Z,962.00
2023-05-10T09:56:38.281Z,957.00
2023-05-10T09:57:38.248Z,958.00
2023-05-10T09:58:38.257Z,963.00
2023-05-10T09:59:38.242Z,962.00
2023-05-10T10:00:38.292Z,954.00
2023-05-10T10:01:38.323Z,959.00
2023-05-10T10:02:38.331Z,965.00
2023-05-10T10:03:38.261Z,958.00
2023-05-10T10:04:38.861Z,952.00
2023-05-10T10:05:38.265Z,950.00
2023-05-10T10:06:38.259Z,958.00
2023-05-10T10:07:38.255Z,960.00
2023-05-10T10:08:38.273Z,958.00
2023-05-10T10:09:38.278Z,965.00
2023-05-10T10:10:38.354Z,963.00
2023-05-10T10:11:38.270Z,945.00
2023-05-10T10:12:38.297Z,842.00
2023-05-10T10:13:38.289Z,819.00
2023-05-10T10:14:38.319Z,831.00
2023-05-10T10:15:38.373Z,891.00
2023-05-10T10:16:45.833Z,898.00
2023-05-10T10:17:39.379Z,905.00
2023-05-10T10:18:38.366Z,904.00
2023-05-10T10:19:38.488Z,910.00
2023-05-10T10:20:38.444Z,913.00
2023-05-10T10:21:38.352Z,919.00
2023-05-10T10:22:38.305Z,906.00
2023-05-10T10:23:38.353Z,805.00
2023-05-10T10:24:38.297Z,805.00
2023-05-10T10:25:38.315Z,853.00
2023-05-10T10:26:38.375Z,843.00
2023-05-10T10:27:38.273Z,904.00
2023-05-10T10:28:38.272Z,948.00
2023-05-10T10:29:38.297Z,1074.00
2023-05-10T10:30:38.328Z,1056.00
2023-05-10T10:31:38.268Z,1055.00
2023-05-10T10:32:38.311Z,970.00
2023-05-10T10:33:38.252Z,945.00
2023-05-10T10:34:38.235Z,936.00
2023-05-10T10:35:38.314Z,935.00
2023-05-10T10:36:38.229Z,936.00
2023-05-10T10:37:38.214Z,932.00
2023-05-10T10:38:38.201Z,929.00
2023-05-10T10:39:38.864Z,925.00
2023-05-10T10:40:38.219Z,923.00
2023-05-10T10:41:38.251Z,917.00
2023-05-10T10:42:38.252Z,905.00
2023-05-10T10:43:38.265Z,894.00
2023-05-10T10:44:38.296Z,877.00
2023-05-10T10:45:38.871Z,852.00
2023-05-10T10:46:38.387Z,837.00
2023-05-10T10:47:38.406Z,831.00
2023-05-10T10:48:38.371Z,826.00
2023-05-10T10:49:38.407Z,819.00
2023-05-10T10:50:38.445Z,810.00
2023-05-10T10:51:38.486Z,800.00
2023-05-10T10:52:38.482Z,792.00
2023-05-10T10:53:38.522Z,784.00
2023-05-10T10:54:38.551Z,780.00
2023-05-10T10:55:38.559Z,778.00
2023-05-10T10:56:38.724Z,774.00
2023-05-10T10:57:38.641Z,771.00
2023-05-10T10:58:38.675Z,769.00
2023-05-10T10:59:38.734Z,766.00
2023-05-10T11:00:38.818Z,769.00
2023-05-10T11:01:38.897Z,772.00
2023-05-10T11:02:38.868Z,774.00
2023-05-10T11:03:38.872Z,774.00
2023-05-10T11:04:38.915Z,771.00
2023-05-10T11:05:38.940Z,769.00
2023-05-10T11:06:38.975Z,763.00
2023-05-10T11:07:39.045Z,753.00
2023-05-10T11:08:39.046Z,744.00
2023-05-10T11:09:39.083Z,738.00
2023-05-10T11:10:39.136Z,738.00
2023-05-10T11:11:39.295Z,739.00
2023-05-10T11:12:39.173Z,738.00
2023-05-10T11:13:39.231Z,736.00
2023-05-10T11:14:39.274Z,732.00
2023-05-10T11:15:39.333Z,726.00
2023-05-10T11:16:39.343Z,720.00
2023-05-10T11:17:39.387Z,715.00
2023-05-10T11:18:39.397Z,715.00
2023-05-10T11:19:39.410Z,713.00
2023-05-10T11:20:39.444Z,713.00
2023-05-10T11:21:39.498Z,715.00
2023-05-10T11:22:39.519Z,722.00
2023-05-10T11:23:39.566Z,749.00
2023-05-10T11:24:39.625Z,756.00
2023-05-10T11:25:39.633Z,758.00
2023-05-10T11:26:39.680Z,759.00
2023-05-10T11:27:39.724Z,756.00
2023-05-10T11:28:39.731Z,750.00
2023-05-10T11:29:39.810Z,743.00
2023-05-10T11:30:39.838Z,733.00
2023-05-10T11:31:39.861Z,724.00
2023-05-10T11:32:39.919Z,718.00
2023-05-10T11:33:39.935Z,715.00
2023-05-10T11:34:40.010Z,709.00
2023-05-10T11:35:43.034Z,701.00
2023-05-10T11:36:40.089Z,693.00
2023-05-10T11:37:40.029Z,682.00
2023-05-10T11:38:40.020Z,677.00
2023-05-10T11:39:40.002Z,669.00
2023-05-10T11:40:39.990Z,659.00
2023-05-10T11:41:41.044Z,650.00
2023-05-10T11:42:39.981Z,642.00
2023-05-10T11:43:40.010Z,632.00
2023-05-10T11:44:39.958Z,621.00
2023-05-10T11:45:39.990Z,610.00
2023-05-10T11:46:39.986Z,604.00
2023-05-10T11:47:42.079Z,596.00
2023-05-10T11:48:39.968Z,587.00
2023-05-10T11:49:39.917Z,581.00
2023-05-10T11:50:39.928Z,567.00
2023-05-10T11:51:39.913Z,560.00
2023-05-10T11:52:39.960Z,556.00
2023-05-10T11:53:39.923Z,554.00
2023-05-10T11:54:39.909Z,551.00
2023-05-10T11:55:39.879Z,546.00
2023-05-10T11:56:39.914Z,538.00
2023-05-10T11:57:39.873Z,535.00
2023-05-10T11:58:39.877Z,534.00
2023-05-10T11:59:42.479Z,530.00
2023-05-10T12:00:39.846Z,526.00
2023-05-10T12:01:39.853Z,522.00
2023-05-10T12:02:39.904Z,520.00
2023-05-10T12:03:39.927Z,515.00
2023-05-10T12:04:39.840Z,511.00
2023-05-10T12:05:42.232Z,509.00
2023-05-10T12:06:39.838Z,504.00
2023-05-10T12:07:39.825Z,499.00
2023-05-10T12:08:39.790Z,492.00
2023-05-10T12:09:44.046Z,486.00
2023-05-10T12:10:39.798Z,485.00
2023-05-10T12:11:42.530Z,481.00
2023-05-10T12:12:39.777Z,479.00
2023-05-10T12:13:39.756Z,473.00
2023-05-10T12:14:39.747Z,469.00
2023-05-10T12:15:39.741Z,467.00
2023-05-10T12:16:39.782Z,463.00
2023-05-10T12:17:41.344Z,462.00
2023-05-10T12:18:39.751Z,462.00
2023-05-10T12:19:39.724Z,465.00
2023-05-10T12:20:39.729Z,470.00
2023-05-10T12:21:39.820Z,472.00
2023-05-10T12:22:39.691Z,477.00
2023-05-10T12:23:39.702Z,479.00
2023-05-10T12:24:39.691Z,480.00
2023-05-10T12:25:39.700Z,482.00
2023-05-10T12:26:39.720Z,484.00
2023-05-10T12:27:39.660Z,485.00
2023-05-10T12:28:39.684Z,487.00
2023-05-10T12:29:41.038Z,487.00
2023-05-10T12:30:39.666Z,485.00
2023-05-10T12:31:39.660Z,483.00
2023-05-10T12:32:39.675Z,479.00
2023-05-10T12:33:39.619Z,478.00
2023-05-10T12:34:40.421Z,475.00